createdAt,value
2018-11-10T16:01:08.365Z,98187.70
2018-11-10T16:03:35.872Z,98188.13
2018-11-10T16:06:04.277Z,98196.41
2018-11-10T16:08:31.814Z,98189.05
2018-11-10T16:11:00.136Z,98198.16
2018-11-10T16:13:27.668Z,98205.78
2018-11-10T16:27:16.205Z,98217.13
2018-11-10T16:32:34.198Z,98200.86
2018-11-10T16:35:01.866Z,98205.53
2018-11-10T16:40:20.153Z,98210.81
2018-11-10T16:42:47.599Z,98219.81
2018-11-10T16:45:15.038Z,98216.28
2018-11-10T16:47:42.485Z,98213.77
2018-11-10T16:50:09.913Z,98218.74
2018-11-10T16:52:37.360Z,98215.59
2018-11-10T16:55:05.099Z,98225.00
2018-11-10T16:57:32.519Z,98220.19
2018-11-10T16:59:59.945Z,98226.38
2018-11-10T17:02:27.388Z,98216.98
2018-11-10T17:04:54.885Z,98218.45
2018-11-10T17:07:22.276Z,98215.30
2018-11-10T17:09:49.726Z,98211.80
2018-11-10T17:12:17.159Z,98211.53
2018-11-10T17:14:44.610Z,98208.19
2018-11-10T17:17:12.032Z,98215.50
2018-11-10T17:19:39.473Z,98217.84
2018-11-10T17:22:06.988Z,98223.19
2018-11-10T17:24:34.370Z,98214.72
2018-11-10T17:27:01.816Z,98222.92
2018-11-10T17:29:29.245Z,98213.73
2018-11-10T17:31:56.680Z,98222.50
2018-11-10T17:34:24.144Z,98231.50
2018-11-10T17:36:51.604Z,98219.54
2018-11-10T17:39:19.119Z,98225.83
2018-11-10T17:41:46.526Z,98230.30
2018-11-10T17:44:13.996Z,98231.59
2018-11-10T17:46:41.444Z,98229.16
2018-11-10T17:49:09.553Z,98227.88
2018-11-10T17:51:37.012Z,98219.51
2018-11-10T17:54:04.472Z,98227.75
2018-11-10T17:56:32.753Z,98237.36
2018-11-10T17:59:00.305Z,98238.66
2018-11-10T18:01:27.800Z,98235.05
2018-11-10T18:03:55.262Z,98234.52
2018-11-10T18:06:22.639Z,98236.14
2018-11-10T18:08:50.171Z,98230.16
2018-11-10T18:11:17.627Z,98226.09
2018-11-10T18:13:45.049Z,98224.53
2018-11-10T18:16:12.492Z,98229.25
2018-11-10T18:18:39.916Z,98222.95
2018-11-10T18:21:07.401Z,98235.44
2018-11-10T18:23:34.832Z,98229.87
2018-11-10T18:26:02.301Z,98220.52
2018-11-10T18:28:29.755Z,98224.50
2018-11-10T18:30:57.239Z,98224.06
2018-11-10T18:33:24.664Z,98207.65
2018-11-10T18:35:52.121Z,98219.54
2018-11-10T18:38:19.602Z,98221.07
2018-11-10T18:40:47.037Z,98211.03
2018-11-10T18:43:14.494Z,98215.72
2018-11-10T18:45:41.992Z,98216.05
2018-11-10T18:48:09.442Z,98218.39
2018-11-10T18:50:36.927Z,98223.41
2018-11-10T18:53:04.385Z,98228.38
2018-11-10T18:55:31.829Z,98231.62
2018-11-10T18:57:59.357Z,98233.32
2018-11-10T19:00:26.753Z,98238.44
2018-11-10T19:02:54.192Z,98233.03
2018-11-10T19:05:21.643Z,98242.15
2018-11-10T19:07:49.091Z,98244.72
2018-11-10T19:10:16.572Z,98250.25
2018-11-10T19:12:44.064Z,98250.11
2018-11-10T19:15:11.548Z,98259.25
2018-11-10T19:17:39.081Z,98262.03
2018-11-10T19:20:06.571Z,98262.78
2018-11-10T19:22:34.000Z,98259.83
2018-11-10T19:25:01.461Z,98255.19
2018-11-10T19:27:28.896Z,98266.23
2018-11-10T19:29:56.371Z,98268.27
2018-11-10T19:32:23.852Z,98285.08
2018-11-10T19:34:51.267Z,98279.01
2018-11-10T19:37:18.700Z,98272.95
2018-11-10T19:39:46.242Z,98283.01
2018-11-10T19:42:13.712Z,98286.95
2018-11-10T19:44:41.354Z,98288.10
2018-11-10T19:47:08.850Z,98267.49
2018-11-10T19:49:36.336Z,98272.94
2018-11-10T19:52:03.958Z,98278.63
2018-11-10T19:54:31.237Z,98272.95
2018-11-10T19:56:58.689Z,98274.08
2018-11-10T19:59:26.131Z,98270.11
2018-11-10T20:01:53.597Z,98273.07
2018-11-10T20:04:21.024Z,98265.43
2018-11-10T20:06:48.486Z,98268.24
2018-11-10T20:09:15.908Z,98270.86
2018-11-10T20:11:43.350Z,98268.22
2018-11-10T20:14:10.808Z,98264.91
2018-11-10T20:16:38.236Z,98253.67
2018-11-10T20:19:05.719Z,98252.78
2018-11-10T20:21:33.172Z,98257.25
2018-11-10T20:24:00.629Z,98264.47
2018-11-10T20:26:28.084Z,98261.59
2018-11-10T20:28:55.541Z,98262.94
2018-11-10T20:31:23.021Z,98263.79
2018-11-10T20:33:50.465Z,98267.66
2018-11-10T20:36:17.959Z,98269.75
2018-11-10T20:38:45.471Z,98276.28
2018-11-10T20:41:12.876Z,98288.04
2018-11-10T20:43:40.313Z,98282.33
2018-11-10T20:46:07.772Z,98297.84
2018-11-10T20:48:35.209Z,98294.30
2018-11-10T20:51:02.691Z,98299.30
2018-11-10T20:53:30.106Z,98298.77
2018-11-10T20:55:57.562Z,98300.91
2018-11-10T20:58:24.988Z,98310.61
2018-11-10T21:00:52.456Z,98311.89
2018-11-10T21:03:19.895Z,98315.31
2018-11-10T21:05:47.433Z,98312.03
2018-11-10T21:08:14.809Z,98324.33
2018-11-10T21:10:42.460Z,98321.09
2018-11-10T21:13:09.912Z,98316.49
2018-11-10T21:15:37.389Z,98317.81
2018-11-10T21:18:04.815Z,98317.73
2018-11-10T21:20:32.243Z,98325.11
2018-11-10T21:22:59.734Z,98332.13
2018-11-10T21:25:27.161Z,98331.60
2018-11-10T21:27:54.624Z,98333.91
2018-11-10T21:30:22.040Z,98325.11
2018-11-10T21:32:50.766Z,98332.37
2018-11-10T21:35:18.362Z,98326.62
2018-11-10T21:37:45.768Z,98326.26
2018-11-10T21:40:13.205Z,98324.87
2018-11-10T21:42:40.663Z,98313.92
2018-11-10T21:45:08.114Z,98320.22
2018-11-10T21:47:35.609Z,98326.01
2018-11-10T21:50:03.040Z,98316.73
2018-11-10T21:52:30.479Z,98315.53
2018-11-10T21:54:57.921Z,98309.59
2018-11-10T21:57:25.352Z,98323.62
2018-11-10T21:59:52.806Z,98330.19
2018-11-10T22:02:20.293Z,98332.44
2018-11-10T22:04:47.749Z,98325.36
2018-11-10T22:07:15.197Z,98329.23
2018-11-10T22:09:42.695Z,98326.49
2018-11-10T22:12:10.106Z,98336.70
2018-11-10T22:14:37.612Z,98329.11
2018-11-10T22:17:05.072Z,98339.69
2018-11-10T22:19:32.512Z,98341.27
2018-11-10T22:21:59.948Z,98339.84
2018-11-10T22:24:27.393Z,98342.20
2018-11-10T22:26:55.784Z,98343.95
2018-11-10T22:29:23.304Z,98354.28
2018-11-10T22:31:50.753Z,98353.69
2018-11-10T22:34:18.186Z,98356.44
2018-11-10T22:36:45.724Z,98362.37
2018-11-10T22:39:13.174Z,98358.06
2018-11-10T22:41:40.624Z,98363.31
2018-11-10T22:44:08.047Z,98355.16
2018-11-10T22:46:35.524Z,98348.55
2018-11-10T22:49:02.955Z,98351.38
2018-11-10T22:51:31.326Z,98348.40
2018-11-10T22:53:58.846Z,98345.81
2018-11-10T22:56:26.297Z,98348.13
2018-11-10T22:58:53.742Z,98341.35
2018-11-10T23:01:21.185Z,98339.96
2018-11-10T23:03:48.691Z,98348.13
2018-11-10T23:06:16.103Z,98347.32
2018-11-10T23:08:43.979Z,98346.55
2018-11-10T23:11:11.485Z,98341.33
2018-11-10T23:13:38.924Z,98336.10
2018-11-10T23:16:06.365Z,98332.52
2018-11-10T23:18:33.800Z,98331.83
2018-11-10T23:21:01.229Z,98334.44
2018-11-10T23:23:28.741Z,98330.35
2018-11-10T23:25:56.185Z,98338.80
2018-11-10T23:28:23.646Z,98341.73
2018-11-10T23:30:51.072Z,98345.30
2018-11-10T23:33:19.625Z,98348.14
2018-11-10T23:35:48.086Z,98338.13
2018-11-10T23:38:16.684Z,98342.70
2018-11-10T23:40:45.319Z,98341.16
2018-11-10T23:43:13.789Z,98330.69
2018-11-10T23:45:42.344Z,98330.11
2018-11-10T23:48:10.757Z,98335.97
2018-11-10T23:50:39.322Z,98324.78
2018-11-10T23:53:08.000Z,98326.11
2018-11-10T23:55:35.540Z,98331.64
2018-11-10T23:58:04.058Z,98323.38
